createdAt,value
2023-04-05T00:02:21.527Z,51.37
2023-04-05T00:04:57.857Z,50.83
2023-04-05T00:07:26.711Z,52.52
2023-04-05T00:09:55.161Z,53.15
2023-04-05T00:12:23.108Z,53.03
2023-04-05T00:14:51.160Z,53.52
2023-04-05T00:17:19.515Z,54.70
2023-04-05T00:19:51.806Z,56.79
2023-04-05T00:22:20.417Z,57.58
2023-04-05T00:24:48.327Z,57.80
2023-04-05T00:27:16.320Z,58.40
2023-04-05T00:29:44.625Z,57.63
2023-04-05T00:32:13.285Z,58.46
2023-04-05T00:34:41.435Z,57.76
2023-04-05T00:37:09.854Z,57.59
2023-04-05T00:39:39.532Z,58.92
2023-04-05T00:42:09.243Z,58.67
2023-04-05T00:44:37.739Z,58.56
2023-04-05T00:47:09.321Z,59.23
2023-04-05T00:49:38.285Z,59.17
2023-04-05T00:52:06.903Z,59.03
2023-04-05T00:54:35.367Z,60.10
2023-04-05T00:57:03.895Z,60.69
2023-04-05T00:59:31.862Z,60.10
2023-04-05T01:02:05.079Z,60.97
2023-04-05T01:04:33.931Z,60.90
2023-04-05T01:07:13.173Z,60.60
2023-04-05T01:09:49.071Z,60.14
2023-04-05T01:12:18.862Z,58.91
2023-04-05T01:14:55.650Z,58.89
2023-04-05T01:17:28.629Z,59.77
2023-04-05T01:20:01.157Z,59.72
2023-04-05T01:22:48.147Z,58.85
2023-04-05T01:25:38.573Z,58.05
2023-04-05T01:28:12.524Z,58.40
2023-04-05T01:30:42.986Z,59.30
2023-04-05T01:33:17.260Z,57.81
2023-04-05T01:36:07.143Z,57.67
2023-04-05T01:38:39.666Z,57.85
2023-04-05T01:41:08.193Z,57.21
2023-04-05T01:43:36.188Z,58.53
2023-04-05T01:46:04.185Z,57.92
2023-04-05T01:48:32.672Z,58.97
2023-04-05T01:51:01.084Z,57.67
2023-04-05T01:53:29.170Z,58.20
2023-04-05T01:56:02.004Z,57.05
2023-04-05T01:58:30.152Z,57.16
2023-04-05T02:00:58.528Z,56.57
2023-04-05T02:03:27.031Z,57.56
2023-04-05T02:05:55.113Z,57.94
2023-04-05T02:08:23.093Z,58.15
2023-04-05T02:10:53.725Z,57.96
2023-04-05T02:13:22.484Z,57.50
2023-04-05T02:15:51.163Z,57.14
2023-04-05T02:18:22.633Z,58.40
2023-04-05T02:20:52.085Z,58.08
2023-04-05T02:23:20.465Z,57.94
2023-04-05T02:25:48.432Z,58.79
2023-04-05T02:28:16.785Z,57.27
2023-04-05T02:30:44.712Z,57.54
2023-04-05T02:33:12.885Z,57.25
2023-04-05T02:35:41.553Z,57.02
2023-04-05T02:38:09.703Z,57.56
2023-04-05T02:40:37.887Z,57.11
2023-04-05T02:43:07.689Z,57.51
2023-04-05T02:45:36.588Z,56.34
2023-04-05T02:48:04.735Z,57.03
2023-04-05T02:50:33.102Z,57.12
2023-04-05T02:53:01.142Z,56.93
2023-04-05T02:55:31.229Z,57.27
2023-04-05T02:58:02.896Z,57.59
2023-04-05T03:00:32.253Z,57.41
2023-04-05T03:03:00.790Z,56.78
2023-04-05T03:05:29.098Z,57.12
2023-04-05T03:07:59.657Z,58.60
2023-04-05T03:10:33.011Z,58.66
2023-04-05T03:13:01.833Z,59.36
2023-04-05T03:15:33.073Z,58.57
2023-04-05T03:18:02.260Z,59.64
2023-04-05T03:20:30.892Z,59.11
2023-04-05T03:22:59.301Z,59.06
2023-04-05T03:25:28.786Z,58.46
2023-04-05T03:27:58.319Z,58.56
2023-04-05T03:30:26.813Z,57.93
2023-04-05T03:32:57.525Z,57.85
2023-04-05T03:35:26.503Z,56.49
2023-04-05T03:37:55.123Z,58.99
2023-04-05T03:40:24.276Z,59.05
2023-04-05T03:42:52.657Z,59.04
2023-04-05T03:45:23.978Z,59.94
2023-04-05T03:47:53.797Z,59.90
2023-04-05T03:50:22.164Z,58.57
2023-04-05T03:52:50.386Z,59.23
2023-04-05T03:55:18.973Z,59.07
2023-04-05T03:57:47.872Z,58.68
2023-04-05T04:00:18.086Z,59.78
2023-04-05T04:02:54.064Z,59.14
2023-04-05T04:05:22.369Z,59.81
2023-04-05T04:07:51.379Z,59.79
2023-04-05T04:10:20.598Z,60.57
2023-04-05T04:12:49.388Z,61.78
2023-04-05T04:15:18.435Z,62.03
2023-04-05T04:17:47.276Z,61.02
2023-04-05T04:20:15.582Z,60.59
2023-04-05T04:22:44.013Z,60.25
2023-04-05T04:25:17.900Z,59.37
2023-04-05T04:27:50.599Z,61.00
2023-04-05T04:30:22.903Z,58.51
2023-04-05T04:33:00.177Z,60.28
2023-04-05T04:35:30.598Z,61.00
2023-04-05T04:38:00.653Z,59.18
2023-04-05T04:40:40.804Z,58.11
2023-04-05T04:43:26.889Z,59.61
2023-04-05T04:45:55.439Z,59.41
2023-04-05T04:48:25.680Z,58.63
2023-04-05T04:50:54.981Z,57.53
2023-04-05T04:53:24.281Z,57.78
2023-04-05T04:55:52.547Z,58.28
2023-04-05T04:58:20.491Z,57.82
2023-04-05T05:00:49.337Z,57.17
2023-04-05T05:03:17.495Z,57.51
2023-04-05T05:05:47.211Z,56.17
2023-04-05T05:08:21.064Z,53.58
2023-04-05T05:10:55.516Z,51.45
2023-04-05T05:13:23.777Z,48.99
2023-04-05T05:15:52.001Z,46.24
2023-04-05T05:18:19.921Z,43.10
2023-04-05T05:20:50.961Z,40.89
2023-04-05T05:23:18.970Z,40.05
2023-04-05T05:25:46.984Z,42.36
2023-04-05T05:28:15.529Z,41.78
2023-04-05T05:30:43.645Z,43.09
2023-04-05T05:33:11.886Z,45.29
2023-04-05T05:35:43.092Z,46.46
2023-04-05T05:38:13.876Z,46.31
2023-04-05T05:40:42.706Z,47.96
2023-04-05T05:43:11.288Z,45.55
2023-04-05T05:45:39.209Z,46.27
2023-04-05T05:48:07.550Z,44.75
2023-04-05T05:50:35.449Z,41.06
2023-04-05T05:53:03.533Z,41.40
2023-04-05T05:55:31.884Z,42.60
2023-04-05T05:58:00.047Z,43.37
2023-04-05T06:00:28.122Z,44.13
2023-04-05T06:02:56.541Z,43.88
2023-04-05T06:05:25.707Z,43.30
2023-04-05T11:19:50.440Z,21.97
2023-04-05T11:22:28.376Z,21.97
2023-04-05T11:24:58.418Z,20.12
2023-04-05T11:27:36.422Z,20.92
2023-04-05T11:30:06.351Z,21.64
2023-04-05T11:32:45.270Z,19.36
2023-04-05T11:35:23.451Z,20.15
2023-04-05T11:38:03.280Z,22.69
2023-04-05T11:40:33.314Z,20.94
2023-04-05T11:43:08.785Z,22.26
2023-04-05T11:45:38.201Z,21.90
2023-04-05T11:48:08.816Z,22.81
2023-04-05T11:50:38.636Z,20.78
2023-04-05T11:53:12.383Z,21.65
2023-04-05T11:55:43.920Z,21.00
2023-04-05T11:58:14.483Z,22.83
2023-04-05T12:00:42.873Z,24.45
2023-04-05T12:03:14.565Z,25.60
2023-04-05T12:05:51.318Z,24.88
2023-04-05T12:08:21.304Z,26.31
2023-04-05T12:11:01.479Z,30.49
2023-04-05T12:13:35.756Z,29.57
2023-04-05T12:16:08.489Z,27.57
2023-04-05T12:18:39.528Z,28.83
2023-04-05T12:21:11.082Z,27.72
2023-04-05T12:23:43.642Z,28.04
2023-04-05T12:26:11.561Z,27.68
2023-04-05T12:28:57.442Z,26.54
2023-04-05T12:31:42.797Z,28.84
2023-04-05T12:34:14.041Z,26.89
2023-04-05T12:36:46.522Z,27.51
2023-04-05T12:39:18.543Z,31.31
2023-04-05T12:41:56.782Z,30.01
2023-04-05T12:44:31.622Z,30.01
2023-04-05T12:47:03.374Z,31.24
2023-04-05T12:49:37.300Z,28.88
2023-04-05T12:52:05.800Z,28.49
2023-04-05T12:54:35.089Z,31.45
2023-04-05T12:57:09.144Z,31.09
2023-04-05T12:59:37.757Z,29.03
2023-04-05T13:02:05.994Z,28.62
2023-04-05T13:04:33.925Z,27.56
2023-04-05T13:07:02.225Z,26.84
2023-04-05T13:09:32.568Z,28.53
2023-04-05T13:12:00.586Z,27.05
2023-04-05T13:14:28.886Z,29.38
2023-04-05T13:16:56.822Z,31.53
2023-04-05T13:19:24.675Z,30.41
2023-04-05T13:21:52.972Z,30.22
2023-04-05T13:24:22.843Z,31.63
2023-04-05T13:26:52.537Z,28.76
2023-04-05T13:29:20.829Z,28.80
2023-04-05T13:31:48.764Z,28.61
2023-04-05T13:34:18.588Z,27.37
2023-04-05T13:36:48.600Z,27.01
2023-04-05T13:39:16.443Z,27.30
2023-04-05T13:41:44.399Z,25.98
2023-04-05T13:44:12.670Z,27.99
2023-04-05T13:46:40.752Z,29.19
2023-04-05T13:49:08.753Z,27.49
2023-04-05T13:51:46.527Z,29.94
2023-04-05T13:54:15.579Z,29.68
2023-04-05T13:56:43.872Z,29.30
2023-04-05T13:59:16.691Z,28.33
2023-04-05T14:01:47.235Z,28.50
2023-04-05T14:04:16.446Z,29.59
2023-04-05T14:06:44.821Z,29.70
2023-04-05T14:09:12.852Z,27.78
2023-04-05T14:11:41.241Z,27.96
2023-04-05T14:14:09.159Z,26.94
2023-04-05T14:16:38.248Z,28.31
2023-04-05T14:19:08.553Z,28.25
2023-04-05T14:21:37.465Z,25.89
2023-04-05T14:24:05.752Z,27.17
2023-04-05T14:26:36.213Z,26.95
2023-04-05T14:29:04.328Z,26.49
2023-04-05T14:31:33.609Z,28.53
2023-04-05T14:34:01.997Z,29.62
2023-04-05T14:36:31.709Z,27.97
2023-04-05T14:38:59.662Z,26.26
2023-04-05T14:41:28.002Z,26.45
2023-04-05T14:43:56.178Z,25.74
2023-04-05T14:46:24.219Z,26.23
2023-04-05T14:48:53.673Z,27.54
2023-04-05T14:51:21.549Z,29.05
2023-04-05T14:53:49.840Z,27.47
2023-04-05T14:56:18.199Z,27.00
2023-04-05T14:58:46.158Z,28.08
2023-04-05T15:01:14.221Z,27.12
2023-04-05T15:03:42.736Z,27.08
2023-04-05T15:06:12.667Z,27.10
2023-04-05T15:08:40.764Z,28.43
2023-04-05T15:11:09.163Z,27.52
2023-04-05T15:13:37.213Z,26.89
2023-04-05T15:16:05.385Z,27.09
2023-04-05T15:18:34.195Z,26.78
2023-04-05T15:21:02.304Z,26.51
2023-04-05T15:23:31.640Z,28.34
2023-04-05T15:25:59.888Z,26.45
2023-04-05T15:28:31.960Z,27.84
2023-04-05T15:31:00.287Z,25.23
2023-04-05T15:33:28.324Z,25.84
2023-04-05T15:35:56.501Z,26.89
2023-04-05T15:38:24.781Z,27.54
2023-04-05T15:40:52.902Z,28.36
2023-04-05T15:43:21.152Z,26.98
2023-04-05T15:45:50.656Z,27.92
2023-04-05T15:48:18.570Z,26.82
2023-04-05T15:50:47.718Z,27.65
2023-04-05T15:53:16.170Z,26.99
2023-04-05T15:55:44.025Z,27.66
2023-04-05T15:58:12.058Z,27.03
2023-04-05T16:00:41.618Z,28.04
2023-04-05T16:03:10.126Z,29.08
2023-04-05T16:05:38.152Z,28.10
2023-04-05T16:08:06.470Z,29.08
2023-04-05T16:10:34.743Z,27.72
2023-04-05T16:13:03.437Z,27.98
2023-04-05T16:15:32.783Z,26.61
2023-04-05T16:18:01.209Z,29.06
2023-04-05T16:20:30.644Z,29.28
2023-04-05T16:22:58.563Z,29.20
2023-04-05T16:25:26.903Z,30.30
2023-04-05T16:27:54.853Z,31.13
2023-04-05T16:30:22.947Z,31.46
2023-04-05T16:32:52.389Z,31.61
2023-04-05T16:35:20.796Z,31.74
2023-04-05T16:37:48.730Z,31.75
2023-04-05T16:40:19.681Z,30.64
2023-04-05T16:42:47.543Z,29.96
2023-04-05T16:45:15.698Z,31.26
2023-04-05T16:47:43.995Z,32.40
2023-04-05T16:50:11.997Z,31.23
2023-04-05T16:52:41.683Z,32.15
2023-04-05T16:55:10.469Z,32.20
2023-04-05T16:57:38.509Z,32.64
2023-04-05T17:00:06.887Z,32.78
2023-04-05T17:02:35.278Z,34.05
2023-04-05T17:05:04.674Z,36.10
2023-04-05T17:07:32.640Z,37.93
2023-04-05T17:10:02.776Z,39.46
2023-04-05T17:12:30.880Z,43.01
2023-04-05T17:14:58.849Z,39.46
2023-04-05T17:17:27.330Z,38.35
2023-04-05T17:19:55.261Z,39.50
2023-04-05T17:22:23.081Z,42.70
2023-04-05T17:24:51.270Z,42.82
2023-04-05T17:27:19.169Z,44.16
2023-04-05T17:29:47.057Z,40.75
2023-04-05T17:32:15.410Z,44.05
2023-04-05T17:34:43.332Z,47.29
2023-04-05T17:37:11.367Z,48.13
2023-04-05T17:39:39.818Z,48.57
2023-04-05T17:42:07.709Z,50.95
2023-04-05T17:44:35.732Z,48.15
2023-04-05T17:47:09.210Z,45.48
2023-04-05T17:49:37.991Z,46.36
2023-04-05T17:52:08.947Z,50.69
2023-04-05T17:54:37.413Z,51.18
2023-04-05T17:57:06.234Z,53.40
2023-04-05T17:59:35.471Z,52.01
2023-04-05T18:02:03.472Z,52.72
2023-04-05T18:04:31.962Z,55.14
2023-04-05T18:06:59.869Z,53.40
2023-04-05T18:09:28.790Z,53.23
2023-04-05T18:11:57.245Z,53.38
2023-04-05T18:14:25.620Z,54.65
2023-04-05T18:16:53.605Z,56.85
2023-04-05T18:19:21.865Z,56.48
2023-04-05T18:21:49.756Z,56.53
2023-04-05T18:24:17.840Z,56.13
2023-04-05T18:26:46.022Z,57.17
2023-04-05T18:29:13.908Z,55.14
2023-04-05T18:31:41.801Z,55.20
2023-04-05T18:34:10.107Z,56.40
2023-04-05T18:36:39.945Z,56.70
2023-04-05T18:39:08.305Z,58.69
2023-04-05T18:41:37.110Z,57.37
2023-04-05T18:44:05.029Z,56.56
2023-04-05T18:46:32.927Z,56.91
2023-04-05T18:49:01.348Z,55.53
2023-04-05T18:51:29.226Z,58.32
2023-04-05T18:53:58.813Z,59.78
2023-04-05T18:56:27.697Z,62.15
2023-04-05T18:58:56.227Z,59.64
2023-04-05T19:01:24.255Z,59.39
2023-04-05T19:03:52.640Z,57.21
2023-04-05T19:06:20.663Z,56.09
2023-04-05T19:08:48.514Z,59.19
2023-04-05T19:11:18.648Z,58.73
2023-04-05T19:13:46.864Z,56.53
2023-04-05T19:16:17.564Z,57.44
2023-04-05T19:18:46.041Z,55.48
2023-04-05T19:21:14.188Z,54.67
2023-04-05T19:23:42.330Z,53.44
2023-04-05T19:26:11.129Z,50.48
2023-04-05T19:28:38.950Z,48.10
2023-04-05T19:31:07.445Z,48.15
2023-04-05T19:33:35.670Z,45.94
2023-04-05T19:36:03.896Z,44.90
2023-04-05T19:38:31.913Z,44.43
2023-04-05T19:41:00.247Z,44.85
2023-04-05T19:43:31.845Z,46.40
2023-04-05T19:46:01.037Z,45.82
2023-04-05T19:48:40.498Z,46.80
2023-04-05T19:51:14.596Z,47.66
2023-04-05T19:53:50.007Z,48.67
2023-04-05T19:56:27.397Z,48.38
2023-04-05T19:59:13.984Z,47.05
2023-04-05T20:01:42.764Z,48.54
2023-04-05T20:04:18.993Z,47.86
2023-04-05T20:06:55.314Z,48.02
2023-04-05T20:09:24.116Z,48.27
2023-04-05T20:12:03.811Z,48.64
2023-04-05T20:14:49.121Z,48.11
2023-04-05T20:17:19.032Z,48.15
2023-04-05T20:19:57.832Z,50.66
2023-04-05T20:22:26.969Z,50.82
2023-04-05T20:24:55.444Z,49.93
2023-04-05T20:27:23.387Z,49.11
2023-04-05T20:29:52.738Z,49.30
2023-04-05T20:32:21.431Z,49.21
2023-04-05T20:34:49.436Z,48.79
2023-04-05T20:37:17.469Z,47.82
2023-04-05T20:39:45.991Z,45.36
2023-04-05T20:42:14.570Z,45.03
2023-04-05T20:44:44.104Z,46.06
2023-04-05T20:47:12.480Z,43.39
2023-04-05T20:49:40.338Z,45.16
2023-04-05T20:52:09.035Z,45.75
2023-04-05T20:54:37.519Z,44.44
2023-04-05T20:57:05.414Z,45.12
2023-04-05T20:59:33.333Z,45.64
2023-04-05T21:02:01.882Z,47.66
2023-04-05T21:04:30.266Z,47.36
2023-04-05T21:06:58.309Z,46.26
2023-04-05T21:09:27.926Z,47.02
2023-04-05T21:11:55.865Z,49.61
2023-04-05T21:14:23.715Z,49.73
2023-04-05T21:16:51.939Z,48.60
2023-04-05T21:19:19.882Z,45.91
2023-04-05T21:21:47.833Z,46.65
2023-04-05T21:24:16.223Z,44.86
2023-04-05T21:26:44.241Z,44.88
2023-04-05T21:29:13.016Z,45.23
2023-04-05T21:31:41.269Z,45.27
2023-04-05T21:34:09.153Z,48.16
2023-04-05T21:36:37.055Z,44.52
2023-04-05T21:39:05.713Z,44.03
2023-04-05T21:41:33.644Z,44.20
2023-04-05T21:44:01.627Z,44.55
2023-04-05T21:46:29.893Z,45.80
2023-04-05T21:48:57.878Z,46.76
2023-04-05T21:51:25.879Z,47.54
2023-04-05T21:53:54.096Z,50.91
2023-04-05T21:56:22.092Z,48.21
2023-04-05T21:58:49.947Z,46.50
2023-04-05T22:01:18.434Z,51.24
2023-04-05T22:03:46.803Z,52.57
2023-04-05T22:06:14.686Z,54.20
2023-04-05T22:08:42.516Z,53.17
2023-04-05T22:11:10.957Z,54.87
2023-04-05T22:13:38.916Z,56.92
2023-04-05T22:16:07.135Z,59.68
2023-04-05T22:18:35.509Z,59.99
2023-04-05T22:21:03.667Z,57.19
2023-04-05T22:23:31.593Z,58.70
2023-04-05T22:25:59.857Z,60.25
2023-04-05T22:28:27.895Z,60.08
2023-04-05T22:30:55.889Z,58.14
2023-04-05T22:33:24.141Z,58.27
2023-04-05T22:35:52.132Z,56.83
2023-04-05T22:38:20.061Z,56.77
2023-04-05T22:40:48.504Z,55.91
2023-04-05T22:43:16.412Z,57.37
2023-04-05T22:45:44.438Z,51.87
2023-04-05T22:48:12.695Z,53.56
2023-04-05T22:50:40.750Z,57.62
2023-04-05T22:53:08.689Z,57.30
2023-04-05T22:55:39.913Z,53.77
2023-04-05T22:58:07.890Z,50.93
2023-04-05T23:00:37.512Z,50.94
2023-04-05T23:03:05.817Z,58.53
2023-04-05T23:05:35.470Z,55.82
2023-04-05T23:08:03.936Z,56.77
2023-04-05T23:10:31.984Z,59.70
2023-04-05T23:12:59.919Z,61.63
2023-04-05T23:15:28.181Z,59.84
2023-04-05T23:17:56.157Z,60.49
2023-04-05T23:20:24.150Z,57.22
2023-04-05T23:22:52.429Z,57.65
2023-04-05T23:25:20.411Z,59.88
2023-04-05T23:27:48.287Z,56.44
2023-04-05T23:30:16.528Z,61.27
2023-04-05T23:32:44.404Z,58.38
2023-04-05T23:35:12.427Z,60.28
2023-04-05T23:37:40.726Z,60.80
2023-04-05T23:40:09.258Z,61.93
2023-04-05T23:42:37.362Z,57.49
2023-04-05T23:45:09.023Z,61.04
2023-04-05T23:47:38.656Z,64.51
2023-04-05T23:50:07.824Z,62.66
2023-04-05T23:52:35.869Z,59.85
2023-04-05T23:55:04.335Z,57.72
2023-04-05T23:57:32.587Z,57.37
